This is the latest recevied weather packets stored in our database for station/object KB5DPX. If no packets are shown the sender has not sent any weather packets the latest 1 day(s).
| Time | Temp. | Humidity | Pressure | Rain* | Wind** | Luminosity | Snow |
|---|---|---|---|---|---|---|---|
| 1777987064 | 5° C | 80% | 1004.8 hPa | 0 mm | 3.13 m/s, 279° | 181 W/m² | - |
| 1777986744 | 5° C | 79% | 1004.6 hPa | 0 mm | 2.68 m/s, 273° | 176 W/m² | - |
| 1777986456 | 5.56° C | 80% | 1004.5 hPa | 0 mm | 3.13 m/s, 276° | 165 W/m² | - |
| 1777986141 | 5.56° C | 79% | 1004.6 hPa | 0 mm | 2.68 m/s, 281° | 160 W/m² | - |
| 1777985848 | 5.56° C | 79% | 1004.5 hPa | 0 mm | 3.13 m/s, 282° | 176 W/m² | - |
| 1777985561 | 5.56° C | 79% | 1004.4 hPa | 0 mm | 1.34 m/s, 283° | 178 W/m² | - |
| 1777985266 | 5.56° C | 79% | 1004.4 hPa | 0 mm | 2.68 m/s, 280° | 188 W/m² | - |
| 1777984953 | 5.56° C | 79% | 1004.4 hPa | 0 mm | 2.68 m/s, 286° | 181 W/m² | - |
| 1777984666 | 5.56° C | 79% | 1004.2 hPa | 0 mm | 2.68 m/s, 289° | 183 W/m² | - |
| 1777984346 | 5.56° C | 78% | 1004.3 hPa | 0 mm | 2.68 m/s, 285° | 185 W/m² | - |
| 1777984067 | 5.56° C | 78% | 1004.3 hPa | 0 mm | 3.58 m/s, 278° | 174 W/m² | - |
| 1777983767 | 5.56° C | 78% | 1004.3 hPa | 0 mm | 4.02 m/s, 274° | 176 W/m² | - |
| 1777983451 | 6.11° C | 77% | 1004.3 hPa | 0 mm | 3.13 m/s, 291° | 244 W/m² | - |
| 1777983166 | 6.11° C | 77% | 1004.1 hPa | 0 mm | 3.58 m/s, 282° | 172 W/m² | - |
| 1777982852 | 5.56° C | 77% | 1004 hPa | 0 mm | 3.58 m/s, 277° | 158 W/m² | - |
| 1777982569 | 5.56° C | 77% | 1004 hPa | 0 mm | 1.79 m/s, 274° | 141 W/m² | - |
| 1777982246 | 5.56° C | 77% | 1004 hPa | 0 mm | 2.68 m/s, 274° | 142 W/m² | - |
| 1777981958 | 5.56° C | 77% | 1003.9 hPa | 0 mm | 2.68 m/s, 271° | 127 W/m² | - |
| 1777981641 | 5.56° C | 78% | 1003.8 hPa | 0 mm | 3.13 m/s, 275° | 107 W/m² | - |
| 1777981359 | 5.56° C | 79% | 1003.8 hPa | 0 mm | 2.24 m/s, 276° | 130 W/m² | - |
| 1777981064 | 5.56° C | 80% | 1003.9 hPa | 0 mm | 0.45 m/s, 282° | 113 W/m² | - |
| 1777980768 | 5° C | 81% | 1003.6 hPa | 0 mm | 0 m/s | 134 W/m² | - |
| 1777980465 | 5° C | 82% | 1003.7 hPa | 0 mm | 0 m/s | 104 W/m² | - |
| 1777980150 | 4.44° C | 83% | 1003.6 hPa | 0 mm | 0 m/s | 84 W/m² | - |
| 1777979857 | 4.44° C | 84% | 1003.6 hPa | 0 mm | 0 m/s | 74 W/m² | - |
* Rain latest hour (hover to see other rain measurements)
** Current wind speed in m/s (hover to see current wind gust speed)